Time;durP1;ratioP1;P1;durP2;ratioP2;P2;SDS_P1;SDS_P2;PMS_P1;PMS_P2;Temp;Humidity;BMP_temperature;BMP_pressure;BME280_temperature;BME280_humidity;BME280_pressure;Samples;Min_cycle;Max_cycle;Signal;HPM_P1;HPM_P2
2021/03/12 00:00:00;;;;;;;24.30;3.87;;;5.10;99.90;;;;;;5046200;28;20241;-75
2021/03/12 00:02:27;;;;;;;17.93;3.67;;;5.10;99.90;;;;;;5041254;28;20206;-75
2021/03/12 00:04:54;;;;;;;20.50;3.47;;;5.10;99.90;;;;;;5042832;28;20743;-75
2021/03/12 00:07:20;;;;;;;17.63;3.23;;;5.20;99.90;;;;;;5041093;28;20241;-75
2021/03/12 00:09:47;;;;;;;17.97;3.63;;;5.20;99.90;;;;;;5041735;28;20227;-75
2021/03/12 00:12:13;;;;;;;18.97;3.77;;;5.10;99.90;;;;;;5042500;28;20667;-75
2021/03/12 00:14:39;;;;;;;15.40;3.57;;;5.10;99.90;;;;;;5042148;28;20244;-76
2021/03/12 00:17:07;;;;;;;23.93;4.47;;;5.10;99.90;;;;;;5044339;28;20246;-76
2021/03/12 00:19:34;;;;;;;17.77;3.57;;;5.10;99.90;;;;;;5044712;28;20228;-76
2021/03/12 00:22:01;;;;;;;15.13;3.17;;;5.00;99.90;;;;;;5047064;28;20725;-76
2021/03/12 00:24:27;;;;;;;19.83;3.70;;;5.10;99.90;;;;;;5044712;28;20284;-76
2021/03/12 00:26:58;;;;;;;16.27;3.87;;;5.10;99.90;;;;;;5041298;28;20282;-76
2021/03/12 00:29:25;;;;;;;19.53;3.20;;;5.00;99.90;;;;;;5041531;28;20560;-76
2021/03/12 00:31:52;;;;;;;26.77;4.10;;;5.10;99.90;;;;;;5043228;28;20686;-75
2021/03/12 00:34:18;;;;;;;25.53;3.93;;;5.10;99.90;;;;;;5041397;28;20649;-76
2021/03/12 00:36:45;;;;;;;22.90;3.63;;;5.00;99.90;;;;;;5044505;28;20230;-76
2021/03/12 00:39:12;;;;;;;21.73;3.73;;;5.00;99.90;;;;;;5044131;28;20238;-76
2021/03/12 00:41:38;;;;;;;21.00;3.50;;;4.90;99.90;;;;;;5043574;28;20236;-76
2021/03/12 00:44:05;;;;;;;17.67;3.80;;;4.90;99.90;;;;;;5043482;28;20641;-75
2021/03/12 00:46:31;;;;;;;18.70;3.60;;;4.90;99.90;;;;;;5027664;28;20229;-75
2021/03/12 00:48:58;;;;;;;17.97;3.30;;;4.90;99.90;;;;;;5040933;28;20235;-75
2021/03/12 00:51:24;;;;;;;18.37;3.23;;;4.90;99.90;;;;;;5042541;28;20270;-75
2021/03/12 00:53:51;;;;;;;25.90;3.40;;;5.00;99.90;;;;;;5044173;28;20276;-75
2021/03/12 00:56:18;;;;;;;18.83;3.53;;;4.90;99.90;;;;;;5041813;28;20294;-75
2021/03/12 00:58:44;;;;;;;18.67;3.03;;;4.90;99.90;;;;;;5039568;28;20253;-75
2021/03/12 01:01:11;;;;;;;22.13;3.63;;;4.90;99.90;;;;;;5043143;28;20233;-75
2021/03/12 01:03:37;;;;;;;17.27;3.00;;;4.90;99.90;;;;;;5042820;28;20242;-75
2021/03/12 01:06:05;;;;;;;18.87;3.37;;;4.90;99.90;;;;;;5041692;28;20227;-75
2021/03/12 01:08:31;;;;;;;16.97;3.50;;;4.80;99.90;;;;;;5046944;28;20305;-75
2021/03/12 01:10:59;;;;;;;16.10;2.83;;;4.80;99.90;;;;;;5039155;28;20227;-75
2021/03/12 01:13:25;;;;;;;18.50;3.23;;;4.80;99.90;;;;;;5042145;28;20235;-75
2021/03/12 01:15:52;;;;;;;14.10;2.73;;;4.80;99.90;;;;;;5043643;28;20319;-75
2021/03/12 01:18:18;;;;;;;17.13;2.80;;;4.80;99.90;;;;;;5040862;28;20224;-75
2021/03/12 01:20:44;;;;;;;22.17;2.90;;;4.70;99.90;;;;;;5040753;28;20618;-75
2021/03/12 01:23:11;;;;;;;18.70;3.23;;;4.70;99.90;;;;;;5040799;28;20243;-75
2021/03/12 01:25:42;;;;;;;12.63;2.70;;;4.70;99.90;;;;;;5045086;28;20229;-75
2021/03/12 01:28:10;;;;;;;13.47;2.93;;;4.70;99.90;;;;;;5042820;28;20243;-75
2021/03/12 01:30:39;;;;;;;15.97;2.87;;;4.70;99.90;;;;;;5040570;28;20233;-75
2021/03/12 01:33:06;;;;;;;22.00;3.37;;;4.60;99.90;;;;;;5043050;28;20281;-75
2021/03/12 01:35:32;;;;;;;15.43;3.20;;;4.60;99.90;;;;;;5040558;28;20254;-75
2021/03/12 01:37:59;;;;;;;22.10;3.07;;;4.70;99.90;;;;;;5043395;28;20227;-75
2021/03/12 01:40:28;;;;;;;13.67;3.00;;;4.70;99.90;;;;;;5039022;28;20226;-75
2021/03/12 01:42:56;;;;;;;15.23;2.93;;;4.60;99.90;;;;;;5042076;28;20239;-75
2021/03/12 01:45:25;;;;;;;15.90;2.80;;;4.60;99.90;;;;;;5042314;28;20228;-75
2021/03/12 01:47:52;;;;;;;16.80;3.30;;;4.60;99.90;;;;;;5042698;28;20254;-75
2021/03/12 01:50:20;;;;;;;17.20;2.83;;;4.60;99.90;;;;;;5040950;28;20230;-75
2021/03/12 01:52:47;;;;;;;16.93;3.37;;;4.60;99.90;;;;;;5039929;28;20230;-75
2021/03/12 01:55:17;;;;;;;21.80;3.90;;;4.50;99.90;;;;;;5022056;28;20724;-75
2021/03/12 01:57:43;;;;;;;13.10;3.13;;;4.60;99.90;;;;;;5040601;28;20220;-75
2021/03/12 02:00:12;;;;;;;21.27;3.53;;;4.60;99.90;;;;;;5022897;28;20206;-75
2021/03/12 02:02:40;;;;;;;21.13;3.43;;;4.50;99.90;;;;;;5040742;28;20379;-75
2021/03/12 02:05:08;;;;;;;18.20;3.30;;;4.50;99.90;;;;;;5040159;28;20220;-75
2021/03/12 02:07:36;;;;;;;20.23;4.27;;;4.50;99.90;;;;;;5042676;28;20230;-75
2021/03/12 02:10:04;;;;;;;20.60;5.93;;;4.40;99.90;;;;;;5042486;28;20248;-75
2021/03/12 02:12:37;;;;;;;26.17;7.20;;;4.40;99.90;;;;;;5040240;28;20232;-75
2021/03/12 02:15:08;;;;;;;30.63;9.70;;;4.40;99.90;;;;;;5040948;28;20222;-75
2021/03/12 02:17:40;;;;;;;30.70;10.30;;;4.40;99.90;;;;;;5037945;28;20248;-75
2021/03/12 02:20:29;;;;;;;32.77;10.80;;;4.40;99.90;;;;;;5042098;28;20583;-75
2021/03/12 02:23:10;;;;;;;32.10;10.20;;;4.30;99.90;;;;;;5046512;28;20196;-75
2021/03/12 02:25:41;;;;;;;33.30;10.40;;;4.30;99.90;;;;;;5046194;28;20634;-75
2021/03/12 02:28:10;;;;;;;33.30;12.43;;;4.20;99.90;;;;;;5025617;28;20287;-75
2021/03/12 02:30:37;;;;;;;35.90;11.37;;;4.30;99.90;;;;;;5043899;28;20331;-75
2021/03/12 02:33:05;;;;;;;33.73;10.97;;;4.20;99.90;;;;;;5045362;28;20230;-75
2021/03/12 02:35:33;;;;;;;36.50;9.53;;;4.20;99.90;;;;;;5046168;28;20260;-75
2021/03/12 02:38:01;;;;;;;25.43;8.30;;;4.20;99.90;;;;;;5047353;28;20232;-75
2021/03/12 02:40:27;;;;;;;25.33;7.50;;;4.20;99.90;;;;;;5044685;28;20241;-75
2021/03/12 02:42:54;;;;;;;24.80;6.63;;;4.20;99.90;;;;;;5048249;28;20737;-75
2021/03/12 02:45:21;;;;;;;21.77;6.53;;;4.30;99.90;;;;;;5044268;28;20235;-75
2021/03/12 02:47:48;;;;;;;23.57;5.20;;;4.20;99.90;;;;;;5043844;28;20237;-75
2021/03/12 02:50:16;;;;;;;26.90;5.30;;;4.20;99.90;;;;;;5048530;28;20250;-75
2021/03/12 02:52:44;;;;;;;20.50;4.50;;;4.30;99.90;;;;;;5047418;28;20242;-75
2021/03/12 02:55:12;;;;;;;26.03;4.50;;;4.20;99.90;;;;;;5044704;28;20253;-75
2021/03/12 02:57:40;;;;;;;22.43;3.67;;;4.20;99.90;;;;;;5043277;28;20233;-75
2021/03/12 03:00:08;;;;;;;20.33;3.60;;;4.20;99.90;;;;;;5047525;28;20260;-75
2021/03/12 03:02:36;;;;;;;20.00;3.77;;;4.20;99.90;;;;;;5044775;28;20201;-75
2021/03/12 03:05:06;;;;;;;15.53;3.30;;;4.30;99.90;;;;;;5043689;28;20217;-75
2021/03/12 03:07:32;;;;;;;23.80;3.47;;;4.20;99.90;;;;;;5042697;28;20243;-75
2021/03/12 03:10:00;;;;;;;18.57;3.17;;;4.20;99.90;;;;;;5045650;28;20232;-75
2021/03/12 03:12:27;;;;;;;23.07;3.57;;;4.20;99.90;;;;;;5046050;28;20234;-75
2021/03/12 03:15:00;;;;;;;16.17;3.10;;;4.30;99.90;;;;;;5039945;28;20249;-75
2021/03/12 03:17:28;;;;;;;15.77;3.17;;;4.20;99.90;;;;;;5045579;28;20383;-75
2021/03/12 03:19:56;;;;;;;12.73;2.57;;;4.20;99.90;;;;;;5042525;28;20728;-75
2021/03/12 03:22:23;;;;;;;21.03;3.43;;;4.20;99.90;;;;;;5043921;28;20201;-75
2021/03/12 03:24:50;;;;;;;20.53;3.43;;;4.10;99.90;;;;;;5042255;28;20319;-75
2021/03/12 03:27:16;;;;;;;24.53;3.90;;;4.20;99.90;;;;;;5045060;28;20595;-75
2021/03/12 03:29:43;;;;;;;18.73;3.23;;;4.10;99.90;;;;;;5044608;28;20223;-75
2021/03/12 03:32:11;;;;;;;16.70;3.03;;;4.10;99.90;;;;;;5044993;28;20227;-75
2021/03/12 03:34:38;;;;;;;22.87;3.03;;;4.10;99.90;;;;;;5043200;28;20247;-75
2021/03/12 03:37:05;;;;;;;21.00;3.70;;;4.00;99.90;;;;;;5045574;28;20703;-75
2021/03/12 03:39:32;;;;;;;23.37;4.10;;;3.90;99.90;;;;;;5042742;28;20247;-75
2021/03/12 03:42:01;;;;;;;22.13;3.53;;;3.90;99.90;;;;;;5048660;28;20218;-75
2021/03/12 03:44:30;;;;;;;20.60;3.67;;;3.90;99.90;;;;;;5045709;28;20252;-75
2021/03/12 03:47:00;;;;;;;19.50;3.43;;;3.90;99.90;;;;;;5042461;28;20224;-75
2021/03/12 03:49:28;;;;;;;17.00;2.47;;;3.90;99.90;;;;;;5045030;28;20281;-75
2021/03/12 03:51:56;;;;;;;17.43;3.00;;;3.90;99.90;;;;;;5044481;28;20681;-75
2021/03/12 03:54:24;;;;;;;16.03;2.50;;;3.90;99.90;;;;;;5043383;28;20256;-75
2021/03/12 03:56:52;;;;;;;27.53;3.33;;;3.90;99.90;;;;;;5041752;28;20230;-75
2021/03/12 03:59:19;;;;;;;23.33;3.03;;;3.90;99.90;;;;;;5041709;28;20756;-75
2021/03/12 04:01:47;;;;;;;16.13;2.67;;;3.80;99.90;;;;;;5043162;28;20635;-75
2021/03/12 04:04:15;;;;;;;16.73;2.93;;;3.90;99.90;;;;;;5042391;28;20235;-75
2021/03/12 04:06:43;;;;;;;21.27;2.83;;;4.00;99.90;;;;;;5044821;28;20232;-75
2021/03/12 04:09:13;;;;;;;18.77;2.80;;;3.90;99.90;;;;;;5043157;28;20284;-75
2021/03/12 04:11:42;;;;;;;18.10;3.47;;;3.90;99.90;;;;;;5041981;28;20244;-75
2021/03/12 04:14:09;;;;;;;16.00;2.70;;;3.80;99.90;;;;;;5042721;28;20585;-75
2021/03/12 04:16:37;;;;;;;20.60;3.40;;;3.80;99.90;;;;;;5041942;28;20228;-75
2021/03/12 04:19:04;;;;;;;19.63;2.97;;;3.70;99.90;;;;;;5043910;28;20228;-75
2021/03/12 04:21:31;;;;;;;12.97;3.13;;;3.80;99.90;;;;;;5043324;28;20681;-75
2021/03/12 04:23:58;;;;;;;24.57;3.60;;;3.80;99.90;;;;;;5041082;28;20224;-75
2021/03/12 04:26:25;;;;;;;22.73;3.43;;;3.80;99.90;;;;;;5044806;28;20675;-75
2021/03/12 04:28:53;;;;;;;18.03;3.37;;;3.80;99.90;;;;;;5045066;28;20699;-75
2021/03/12 04:31:20;;;;;;;18.67;3.50;;;3.80;99.90;;;;;;5044089;28;20299;-75
2021/03/12 04:33:47;;;;;;;20.60;3.47;;;3.70;99.90;;;;;;5024576;28;20284;-75
2021/03/12 04:36:14;;;;;;;19.03;3.40;;;3.70;99.90;;;;;;5043011;28;20263;-75
2021/03/12 04:38:42;;;;;;;24.63;2.77;;;3.80;99.90;;;;;;5041263;28;20262;-75
2021/03/12 04:41:09;;;;;;;23.37;3.23;;;3.70;99.90;;;;;;5041050;28;20224;-75
2021/03/12 04:43:36;;;;;;;15.27;3.07;;;3.70;99.90;;;;;;5045322;28;20287;-75
2021/03/12 04:46:04;;;;;;;24.40;2.77;;;3.70;99.90;;;;;;5042739;28;20667;-75
2021/03/12 04:48:31;;;;;;;24.27;2.70;;;3.70;99.90;;;;;;5043129;28;20224;-75
2021/03/12 04:50:59;;;;;;;16.30;2.57;;;3.60;99.90;;;;;;5045032;28;20740;-75
2021/03/12 04:53:29;;;;;;;17.80;2.30;;;3.70;99.90;;;;;;5042327;28;20558;-75
2021/03/12 04:55:56;;;;;;;19.70;2.90;;;3.70;99.90;;;;;;5040615;28;20249;-75
2021/03/12 04:58:23;;;;;;;15.97;2.43;;;3.70;99.90;;;;;;5043967;28;20232;-75
2021/03/12 05:00:50;;;;;;;21.20;2.63;;;3.70;99.90;;;;;;5042884;28;20235;-75
2021/03/12 05:03:18;;;;;;;20.97;2.80;;;3.60;99.90;;;;;;5040978;28;20225;-75
2021/03/12 05:05:45;;;;;;;16.27;2.83;;;3.70;99.90;;;;;;5043858;28;20883;-75
2021/03/12 05:08:13;;;;;;;19.13;3.10;;;3.70;99.90;;;;;;5040907;28;20668;-75
2021/03/12 05:10:53;;;;;;;23.47;3.30;;;3.80;99.90;;;;;;5023588;28;20612;-75
2021/03/12 05:13:19;;;;;;;23.17;3.20;;;3.80;99.90;;;;;;5043222;28;20235;-75
2021/03/12 05:15:45;;;;;;;22.03;3.50;;;3.80;99.90;;;;;;5041989;28;20302;-75
2021/03/12 05:18:12;;;;;;;26.07;3.03;;;3.80;99.90;;;;;;5044661;28;20649;-75
2021/03/12 05:20:39;;;;;;;19.43;3.20;;;3.80;99.90;;;;;;5044866;28;20259;-75
2021/03/12 05:23:06;;;;;;;18.87;3.03;;;3.80;99.90;;;;;;5046531;28;20680;-75
2021/03/12 05:25:32;;;;;;;25.93;3.10;;;3.90;99.90;;;;;;5045369;28;20234;-75
2021/03/12 05:27:58;;;;;;;24.10;3.47;;;3.90;99.90;;;;;;5041633;28;20236;-75
2021/03/12 05:30:26;;;;;;;17.70;2.70;;;3.90;99.90;;;;;;5044136;28;20769;-75
2021/03/12 05:32:52;;;;;;;19.17;2.97;;;4.00;99.90;;;;;;5024795;28;20238;-75
2021/03/12 05:35:19;;;;;;;24.17;2.87;;;4.00;99.90;;;;;;5039577;28;20712;-75
2021/03/12 05:37:47;;;;;;;18.33;2.63;;;3.90;99.90;;;;;;5042381;28;20239;-75
2021/03/12 05:40:14;;;;;;;19.20;3.13;;;3.90;99.90;;;;;;5047438;28;20698;-75
2021/03/12 05:42:43;;;;;;;25.77;3.43;;;4.00;99.90;;;;;;5042455;28;20254;-75
2021/03/12 05:45:10;;;;;;;17.13;3.40;;;4.00;99.90;;;;;;5042177;28;20266;-75
2021/03/12 05:47:37;;;;;;;15.83;3.03;;;4.00;99.90;;;;;;5039831;28;20230;-75
2021/03/12 05:50:05;;;;;;;19.13;3.53;;;3.90;99.90;;;;;;5042449;28;20207;-75
2021/03/12 05:52:32;;;;;;;19.17;3.13;;;3.90;99.90;;;;;;5041588;28;20279;-75
2021/03/12 05:55:01;;;;;;;19.87;3.00;;;4.00;99.90;;;;;;5025873;28;20302;-75
2021/03/12 05:57:29;;;;;;;17.07;2.70;;;4.00;99.90;;;;;;5042609;28;20230;-75
2021/03/12 05:59:55;;;;;;;21.70;3.13;;;4.00;99.90;;;;;;5024540;28;20236;-75
2021/03/12 06:02:22;;;;;;;18.87;3.33;;;4.00;99.90;;;;;;5041950;28;20292;-75
2021/03/12 06:04:48;;;;;;;25.17;3.47;;;4.00;99.90;;;;;;5044457;28;20237;-75
2021/03/12 06:07:15;;;;;;;18.87;3.53;;;4.00;99.90;;;;;;5043144;28;20772;-75
2021/03/12 06:09:42;;;;;;;17.57;2.73;;;4.10;99.90;;;;;;5040218;28;20582;-75
2021/03/12 06:12:11;;;;;;;18.93;3.50;;;4.10;99.90;;;;;;5040433;28;20289;-76
2021/03/12 06:14:52;;;;;;;22.43;3.47;;;4.10;99.90;;;;;;5039013;28;20226;-75
2021/03/12 06:17:35;;;;;;;24.43;2.57;;;4.20;99.90;;;;;;5043154;28;20648;-76
2021/03/12 06:20:03;;;;;;;18.00;2.47;;;4.20;99.90;;;;;;5040502;28;20260;-75
2021/03/12 06:22:29;;;;;;;23.00;3.50;;;4.20;99.90;;;;;;5045530;28;20629;-76
2021/03/12 06:25:12;;;;;;;19.40;3.83;;;4.30;99.90;;;;;;5040417;28;20221;-75
2021/03/12 06:27:40;;;;;;;19.93;3.73;;;4.20;99.90;;;;;;5044629;28;20281;-76
2021/03/12 06:30:08;;;;;;;14.07;2.60;;;4.20;99.90;;;;;;5042746;28;20225;-75
2021/03/12 06:32:40;;;;;;;15.93;2.50;;;4.30;99.90;;;;;;5048739;28;20208;-75
2021/03/12 06:35:08;;;;;;;22.73;3.17;;;4.30;99.90;;;;;;5042633;28;20227;-75
2021/03/12 06:37:35;;;;;;;21.17;3.33;;;4.30;99.90;;;;;;5048657;28;20292;-74
2021/03/12 06:40:19;;;;;;;22.33;3.83;;;4.30;99.90;;;;;;5042176;28;20209;-75
2021/03/12 06:43:08;;;;;;;15.50;3.63;;;4.50;99.90;;;;;;5044323;28;20241;-75
2021/03/12 06:46:07;;;;;;;21.30;3.50;;;4.50;99.90;;;;;;5034159;28;20248;-76
2021/03/12 06:48:35;;;;;;;19.30;3.80;;;4.60;99.90;;;;;;5063647;28;20738;-75
2021/03/12 06:51:05;;;;;;;20.20;4.13;;;4.70;99.90;;;;;;5056412;28;20610;-75
2021/03/12 06:53:34;;;;;;;18.73;3.60;;;4.80;99.90;;;;;;5050517;28;20203;-76
2021/03/12 06:56:03;;;;;;;19.47;3.73;;;4.90;99.90;;;;;;5040267;28;20733;-75
2021/03/12 06:58:31;;;;;;;18.43;3.57;;;5.10;99.90;;;;;;5035042;28;20232;-75
2021/03/12 07:00:58;;;;;;;17.90;3.40;;;5.40;99.90;;;;;;5044279;28;20227;-75
2021/03/12 07:03:33;;;;;;;13.00;2.93;;;5.60;99.90;;;;;;5040429;28;20294;-76
2021/03/12 07:06:03;;;;;;;15.43;3.13;;;5.80;99.90;;;;;;5045398;28;20247;-75
2021/03/12 07:08:38;;;;;;;17.67;3.07;;;6.10;99.90;;;;;;5038112;28;20223;-75
2021/03/12 07:11:18;;;;;;;12.83;2.47;;;6.50;99.90;;;;;;5051937;28;20212;-76
2021/03/12 07:13:46;;;;;;;11.33;2.37;;;6.80;99.90;;;;;;5055615;28;20601;-75
2021/03/12 07:16:13;;;;;;;11.60;2.73;;;7.30;99.90;;;;;;5042558;28;20310;-76
2021/03/12 07:18:39;;;;;;;19.90;3.27;;;7.50;99.90;;;;;;5042310;28;20393;-75
2021/03/12 07:21:07;;;;;;;14.73;2.60;;;7.90;99.90;;;;;;5045395;28;20319;-75
2021/03/12 07:23:37;;;;;;;13.20;2.60;;;8.30;99.90;;;;;;5053422;28;20237;-75
2021/03/12 07:26:05;;;;;;;14.97;2.70;;;8.80;99.90;;;;;;5053792;28;20623;-76
2021/03/12 07:28:35;;;;;;;17.53;2.77;;;9.10;99.90;;;;;;5047959;28;20220;-76
2021/03/12 07:31:05;;;;;;;13.17;2.30;;;9.40;99.90;;;;;;5053090;28;20607;-76
2021/03/12 07:33:34;;;;;;;16.83;2.73;;;9.30;99.90;;;;;;5044603;28;20208;-76
2021/03/12 07:36:03;;;;;;;14.77;3.03;;;9.70;99.90;;;;;;5052510;28;20233;-76
2021/03/12 07:38:34;;;;;;;12.47;2.60;;;10.50;99.90;;;;;;5043554;28;20247;-75
2021/03/12 07:41:03;;;;;;;10.07;2.67;;;11.30;99.90;;;;;;5052035;28;20199;-75
2021/03/12 07:43:32;;;;;;;8.60;2.33;;;11.60;99.90;;;;;;5047484;28;20207;-75
2021/03/12 07:46:00;;;;;;;13.27;2.50;;;11.70;99.90;;;;;;5052553;28;20246;-76
2021/03/12 07:48:29;;;;;;;10.47;2.37;;;12.20;99.90;;;;;;5053127;28;20200;-76
2021/03/12 07:51:12;;;;;;;10.57;2.83;;;11.80;99.90;;;;;;5045684;28;20630;-75
2021/03/12 07:53:49;;;;;;;8.70;2.50;;;11.50;99.90;;;;;;5033144;28;20204;-76
2021/03/12 07:56:17;;;;;;;13.30;2.13;;;11.80;99.90;;;;;;5048931;28;20306;-75
2021/03/12 07:58:58;;;;;;;7.37;1.73;;;11.50;99.90;;;;;;5051025;28;20200;-75
2021/03/12 08:01:26;;;;;;;8.67;1.90;;;11.60;99.90;;;;;;5051920;28;20207;-76
2021/03/12 08:03:54;;;;;;;10.07;2.03;;;11.90;99.90;;;;;;5052820;28;20239;-76
2021/03/12 08:06:32;;;;;;;10.53;2.33;;;12.20;99.90;;;;;;5050699;28;20285;-75
2021/03/12 08:08:59;;;;;;;9.37;2.43;;;13.10;99.90;;;;;;5033100;28;20652;-75
2021/03/12 08:11:28;;;;;;;11.20;2.55;;;13.40;99.90;;;;;;5032928;28;20231;-75
2021/03/12 08:14:10;;;;;;;8.10;2.30;;;14.00;99.90;;;;;;5049350;28;20200;-74
2021/03/12 08:16:37;;;;;;;9.02;2.50;;;14.70;99.90;;;;;;5039540;28;20322;-73
2021/03/12 08:19:32;;;;;;;9.75;1.98;;;14.50;99.90;;;;;;5047808;28;20254;-74
2021/03/12 08:21:59;;;;;;;9.05;2.47;;;13.40;99.90;;;;;;5040226;28;20247;-74
2021/03/12 08:24:46;;;;;;;12.47;2.80;;;12.30;99.90;;;;;;5051980;28;20199;-75
2021/03/12 08:27:33;;;;;;;12.03;2.47;;;11.00;99.90;;;;;;5036790;28;20672;-77
2021/03/12 08:29:59;;;;;;;9.00;2.37;;;10.70;99.90;;;;;;5035200;28;20232;-73
2021/03/12 08:32:41;;;;;;;11.57;2.30;;;10.60;99.90;;;;;;5039925;28;20235;-75
2021/03/12 08:35:38;;;;;;;11.27;2.67;;;10.70;99.90;;;;;;5042483;28;20298;-75
2021/03/12 08:38:21;;;;;;;10.57;2.37;;;11.60;99.90;;;;;;5046411;28;20261;-75
2021/03/12 08:40:55;;;;;;;8.90;2.27;;;12.60;99.90;;;;;;5051133;28;20234;-76
2021/03/12 08:43:24;;;;;;;9.17;2.70;;;12.00;99.90;;;;;;5029271;28;20231;-76
2021/03/12 08:45:53;;;;;;;10.57;2.53;;;10.90;99.90;;;;;;5049982;28;20196;-76
2021/03/12 08:48:21;;;;;;;11.47;2.73;;;10.80;99.90;;;;;;5051913;28;20239;-75
2021/03/12 08:50:52;;;;;;;13.17;3.33;;;11.70;99.90;;;;;;5035445;28;20361;-75
2021/03/12 08:53:20;;;;;;;13.17;3.40;;;13.10;99.90;;;;;;5045384;28;20776;-76
2021/03/12 08:55:49;;;;;;;9.77;3.40;;;13.30;99.90;;;;;;5042022;28;20281;-76
2021/03/12 08:58:18;;;;;;;8.70;2.43;;;14.20;99.90;;;;;;5037693;28;20235;-76
2021/03/12 09:00:48;;;;;;;10.60;2.60;;;14.20;99.90;;;;;;5048191;28;20227;-76
2021/03/12 09:03:20;;;;;;;11.32;2.28;;;14.40;99.90;;;;;;5049478;28;20290;-76
2021/03/12 09:05:48;;;;;;;9.07;1.73;;;14.60;99.90;;;;;;5053779;28;20289;-76
2021/03/12 09:08:15;;;;;;;6.93;1.98;;;14.30;99.90;;;;;;5032344;28;20236;-75
2021/03/12 09:10:43;;;;;;;11.07;2.13;;;14.30;99.90;;;;;;5031703;28;20250;-76
2021/03/12 09:13:14;;;;;;;8.18;1.88;;;15.00;99.90;;;;;;5039791;28;20258;-76
2021/03/12 09:15:40;;;;;;;6.20;1.83;;;15.40;99.90;;;;;;5051323;28;20326;-76
2021/03/12 09:18:07;;;;;;;11.75;2.35;;;15.10;99.90;;;;;;5032625;28;20306;-75
2021/03/12 09:20:35;;;;;;;5.05;2.03;;;15.50;99.90;;;;;;5038363;28;20315;-75
2021/03/12 09:23:01;;;;;;;9.33;1.80;;;15.60;99.90;;;;;;5041486;28;20206;-76
2021/03/12 09:25:29;;;;;;;11.50;3.00;;;14.30;99.90;;;;;;5039574;28;20196;-75
2021/03/12 09:28:02;;;;;;;10.60;2.20;;;13.10;99.90;;;;;;5048224;28;20234;-76
2021/03/12 09:30:31;;;;;;;8.33;1.80;;;12.20;99.90;;;;;;5035884;28;20211;-75
2021/03/12 09:32:57;;;;;;;8.13;2.03;;;12.60;99.90;;;;;;5044309;28;20603;-76
2021/03/12 09:35:25;;;;;;;8.33;2.00;;;12.70;99.90;;;;;;5051048;28;20265;-75
2021/03/12 09:37:52;;;;;;;9.40;1.87;;;13.10;99.90;;;;;;5041723;28;20214;-76
2021/03/12 09:40:29;;;;;;;9.97;2.07;;;13.00;99.90;;;;;;5046500;28;20211;-75
2021/03/12 09:42:56;;;;;;;9.50;2.07;;;12.70;99.90;;;;;;5047595;28;20275;-76
2021/03/12 09:45:24;;;;;;;8.93;1.83;;;12.80;99.90;;;;;;5038772;28;20223;-76
2021/03/12 09:47:52;;;;;;;8.63;2.00;;;12.60;99.90;;;;;;5039014;28;20246;-76
2021/03/12 09:50:21;;;;;;;13.90;2.17;;;12.20;99.90;;;;;;5047781;28;20912;-76
2021/03/12 09:52:49;;;;;;;10.73;2.00;;;12.00;99.90;;;;;;5037702;28;20951;-75
2021/03/12 09:55:16;;;;;;;10.90;2.10;;;12.30;99.90;;;;;;5046465;28;20721;-76
2021/03/12 09:57:43;;;;;;;7.90;2.17;;;12.90;99.90;;;;;;5039434;28;20236;-75
2021/03/12 10:00:10;;;;;;;13.17;2.70;;;13.40;99.90;;;;;;5042880;28;20305;-75
2021/03/12 10:02:50;;;;;;;10.73;2.13;;;13.90;99.90;;;;;;5042863;28;20282;-76
2021/03/12 10:05:19;;;;;;;11.63;2.20;;;14.20;99.90;;;;;;5053670;28;20722;-75
2021/03/12 10:07:47;;;;;;;10.87;2.20;;;13.80;99.90;;;;;;5051302;28;20239;-75
2021/03/12 10:10:21;;;;;;;9.33;1.87;;;13.60;99.90;;;;;;5019412;28;20629;-76
2021/03/12 10:12:49;;;;;;;11.03;2.10;;;13.50;99.90;;;;;;5038665;28;20196;-76
2021/03/12 10:15:17;;;;;;;13.40;2.33;;;13.50;99.90;;;;;;5050980;28;20333;-76
2021/03/12 10:17:44;;;;;;;9.20;1.60;;;13.20;99.90;;;;;;5041562;28;20216;-78
2021/03/12 10:20:24;;;;;;;8.13;2.10;;;14.20;99.90;;;;;;5050740;28;20263;-76
2021/03/12 10:22:53;;;;;;;10.60;2.17;;;14.40;99.90;;;;;;5047737;28;20245;-75
2021/03/12 10:25:21;;;;;;;10.27;1.90;;;15.00;99.90;;;;;;5050597;28;20672;-76
2021/03/12 10:27:49;;;;;;;10.63;1.80;;;15.20;99.90;;;;;;5017653;28;20287;-75
2021/03/12 10:30:18;;;;;;;8.90;1.53;;;15.50;99.90;;;;;;5039181;28;20240;-76
2021/03/12 10:32:47;;;;;;;5.60;1.50;;;14.60;99.90;;;;;;5038618;28;20242;-75
2021/03/12 10:35:33;;;;;;;9.47;1.83;;;14.10;99.90;;;;;;5045852;28;20310;-76
2021/03/12 10:38:01;;;;;;;10.47;1.80;;;14.40;99.90;;;;;;5033039;28;20274;-75
2021/03/12 10:40:35;;;;;;;6.77;1.40;;;16.20;99.90;;;;;;5040653;28;20282;-75
2021/03/12 10:43:11;;;;;;;7.43;1.40;;;16.80;99.90;;;;;;5046705;28;20231;-76
2021/03/12 10:45:45;;;;;;;6.13;1.77;;;17.10;99.90;;;;;;5052205;28;20242;-76
2021/03/12 10:48:12;;;;;;;9.27;1.75;;;17.10;99.90;;;;;;5040401;28;20287;-76
2021/03/12 10:50:40;;;;;;;8.40;1.85;;;16.70;99.90;;;;;;5047510;28;20286;-76
2021/03/12 10:53:12;;;;;;;6.50;1.50;;;17.30;99.90;;;;;;5054424;28;20238;-76
2021/03/12 10:55:41;;;;;;;7.07;1.80;;;17.80;99.90;;;;;;5053610;28;20306;-76
2021/03/12 10:58:25;;;;;;;5.97;1.30;;;16.90;99.90;;;;;;5041018;28;20235;-76
2021/03/12 11:01:11;;;;;;;6.90;1.70;;;16.10;99.90;;;;;;5034525;28;20204;-76
2021/03/12 11:03:39;;;;;;;5.30;1.23;;;14.90;99.90;;;;;;5042545;28;20297;-76
2021/03/12 11:06:06;;;;;;;9.60;1.97;;;14.00;99.90;;;;;;5054685;28;20318;-76
2021/03/12 11:08:34;;;;;;;7.73;2.17;;;13.60;99.90;;;;;;5038861;28;20291;-76
2021/03/12 11:11:03;;;;;;;7.10;1.60;;;14.00;99.90;;;;;;5038274;28;20192;-76
2021/03/12 11:13:29;;;;;;;8.37;1.90;;;14.90;99.90;;;;;;5044748;28;20212;-76
2021/03/12 11:15:55;;;;;;;7.40;1.67;;;15.60;99.90;;;;;;5042320;28;20255;-76
2021/03/12 11:18:24;;;;;;;10.23;2.23;;;15.50;99.90;;;;;;5048195;28;20251;-75
2021/03/12 11:20:50;;;;;;;7.93;1.90;;;14.90;99.90;;;;;;5052058;28;20263;-76
2021/03/12 11:23:18;;;;;;;8.37;1.90;;;14.50;99.90;;;;;;5053354;28;20231;-76
2021/03/12 11:25:44;;;;;;;8.50;1.70;;;14.30;99.90;;;;;;5035821;28;20228;-76
2021/03/12 11:28:11;;;;;;;8.67;1.77;;;14.00;99.90;;;;;;5038614;28;20234;-76
2021/03/12 11:30:37;;;;;;;10.27;1.90;;;13.90;99.90;;;;;;5052548;28;20231;-77
2021/03/12 11:33:04;;;;;;;6.00;1.50;;;13.70;99.90;;;;;;5056069;28;20284;-75
2021/03/12 11:35:31;;;;;;;7.37;1.93;;;13.90;99.90;;;;;;5046909;28;20739;-76
2021/03/12 11:37:58;;;;;;;6.33;1.70;;;14.60;99.90;;;;;;5048164;28;20272;-76
2021/03/12 11:40:26;;;;;;;5.87;1.50;;;15.70;99.90;;;;;;5053759;28;20231;-76
2021/03/12 11:42:53;;;;;;;6.43;1.60;;;15.50;99.90;;;;;;5035894;28;20235;-75
2021/03/12 11:45:21;;;;;;;9.67;2.40;;;15.60;99.90;;;;;;5033620;28;20287;-76
2021/03/12 11:47:47;;;;;;;11.07;2.03;;;15.30;99.90;;;;;;5033920;28;20672;-76
2021/03/12 11:50:16;;;;;;;6.87;1.70;;;14.50;99.90;;;;;;5033670;28;20240;-75
2021/03/12 11:52:43;;;;;;;13.30;1.80;;;14.80;99.90;;;;;;5051261;28;20231;-76
2021/03/12 11:55:10;;;;;;;6.37;1.57;;;15.00;99.90;;;;;;5050097;28;20299;-76
2021/03/12 11:57:38;;;;;;;9.47;1.30;;;14.60;99.90;;;;;;5048512;28;20196;-76
2021/03/12 12:00:07;;;;;;;8.67;1.37;;;14.30;99.90;;;;;;5039860;28;20284;-75
2021/03/12 12:02:34;;;;;;;8.23;1.40;;;14.20;99.90;;;;;;5045006;28;20653;-76
2021/03/12 12:05:02;;;;;;;11.43;2.17;;;13.90;99.90;;;;;;5045659;28;20312;-76
2021/03/12 12:07:28;;;;;;;8.40;1.80;;;13.90;99.90;;;;;;5037276;28;20203;-76
2021/03/12 12:09:55;;;;;;;9.43;1.70;;;13.70;99.90;;;;;;5037264;28;20239;-76
2021/03/12 12:12:22;;;;;;;5.77;1.10;;;13.90;99.90;;;;;;5047735;28;20694;-76
2021/03/12 12:14:49;;;;;;;5.30;1.50;;;14.20;99.90;;;;;;5052122;28;20237;-76
2021/03/12 12:17:16;;;;;;;5.00;1.63;;;14.20;99.90;;;;;;5046896;28;20255;-76
2021/03/12 12:19:45;;;;;;;6.07;1.50;;;14.70;99.90;;;;;;5043775;28;20731;-77
2021/03/12 12:22:12;;;;;;;7.37;1.10;;;15.00;99.90;;;;;;5043481;28;20212;-76
2021/03/12 12:24:39;;;;;;;9.40;1.40;;;15.10;99.90;;;;;;5026577;28;20235;-76
2021/03/12 12:27:08;;;;;;;7.17;1.20;;;14.80;99.90;;;;;;5036210;28;20216;-76
2021/03/12 12:29:35;;;;;;;8.37;1.50;;;14.50;99.90;;;;;;5040196;28;20284;-76
2021/03/12 12:32:03;;;;;;;6.60;1.30;;;14.30;99.90;;;;;;5045810;28;20690;-76
2021/03/12 12:34:30;;;;;;;7.80;1.53;;;14.30;99.90;;;;;;5046184;28;20243;-75
2021/03/12 12:36:56;;;;;;;6.13;1.30;;;14.40;99.90;;;;;;5051710;28;20285;-75
2021/03/12 12:39:24;;;;;;;6.10;1.50;;;14.20;99.90;;;;;;5035327;28;20236;-76
2021/03/12 12:41:51;;;;;;;5.90;1.30;;;14.30;99.90;;;;;;5047157;28;20204;-75
2021/03/12 12:44:18;;;;;;;5.40;1.40;;;14.40;99.90;;;;;;5040710;28;20208;-76
2021/03/12 12:46:45;;;;;;;4.70;1.50;;;14.20;99.90;;;;;;5048549;28;20247;-75
2021/03/12 12:49:13;;;;;;;6.50;1.20;;;14.00;99.90;;;;;;5044070;28;20739;-76
2021/03/12 12:51:42;;;;;;;5.03;1.13;;;13.80;99.90;;;;;;5043612;28;20232;-76
2021/03/12 12:54:10;;;;;;;6.90;1.50;;;13.40;99.90;;;;;;5045109;28;20664;-76